Time;durP1;ratioP1;P1;durP2;ratioP2;P2;SDS_P1;SDS_P2;PMS_P1;PMS_P2;Temp;Humidity;BMP_temperature;BMP_pressure;BME280_temperature;BME280_humidity;BME280_pressure;Samples;Min_cycle;Max_cycle;Signal;HPM_P1;HPM_P2
2024/04/11 00:01:33;;;;;;;8.30;5.10;;;;;;;9.67;81.21;98061.32;108633;1268;22567;-72
2024/04/11 00:04:04;;;;;;;7.90;5.00;;;;;;;9.68;81.18;98061.77;108580;1275;22553;-72
2024/04/11 00:06:37;;;;;;;8.40;5.90;;;;;;;9.70;81.10;98067.42;108597;1275;22583;-72
2024/04/11 00:09:10;;;;;;;8.30;5.60;;;;;;;9.72;81.02;98066.27;108597;1269;22640;-71
2024/04/11 00:11:41;;;;;;;10.00;5.20;;;;;;;9.73;80.89;98064.74;108629;1274;22531;-72
2024/04/11 00:14:12;;;;;;;9.00;5.50;;;;;;;9.72;80.80;98071.80;108611;1274;22716;-72
2024/04/11 00:16:42;;;;;;;10.00;5.50;;;;;;;9.68;80.81;98068.61;108599;1274;22544;-72
2024/04/11 00:19:13;;;;;;;9.60;5.80;;;;;;;9.67;80.94;98068.73;108626;1267;25232;-71
2024/04/11 00:21:43;;;;;;;9.30;5.40;;;;;;;9.62;81.19;98066.91;108535;1274;22644;-72
2024/04/11 00:24:14;;;;;;;8.80;5.30;;;;;;;9.64;81.31;98070.17;108561;1254;22544;-72
2024/04/11 00:26:46;;;;;;;7.20;4.40;;;;;;;9.67;81.24;98070.33;108564;1275;22525;-72
2024/04/11 00:29:17;;;;;;;8.40;5.50;;;;;;;9.68;81.30;98069.92;108570;1275;22529;-72
2024/04/11 00:31:47;;;;;;;8.80;5.30;;;;;;;9.71;81.45;98071.16;108591;1267;22529;-72
2024/04/11 00:34:23;;;;;;;10.30;5.70;;;;;;;9.72;81.32;98070.95;108544;1270;22519;-72
2024/04/11 00:36:55;;;;;;;7.90;5.50;;;;;;;9.64;81.28;98074.14;108609;1275;22528;-72
2024/04/11 00:39:26;;;;;;;5.90;4.70;;;;;;;9.54;81.34;98072.46;108561;1270;22575;-72
2024/04/11 00:41:56;;;;;;;8.00;5.40;;;;;;;9.47;81.53;98074.03;108540;1268;22616;-71
2024/04/11 00:44:30;;;;;;;8.00;5.50;;;;;;;9.45;81.81;98074.85;108516;1275;24510;-72
2024/04/11 00:47:01;;;;;;;8.80;6.00;;;;;;;9.47;81.87;98072.08;108573;1273;24253;-72
2024/04/11 00:49:34;;;;;;;8.80;5.30;;;;;;;9.45;81.94;98072.33;108643;1273;22533;-72
2024/04/11 00:52:06;;;;;;;9.40;5.70;;;;;;;9.44;82.10;98071.98;108691;1270;24260;-72
2024/04/11 00:54:37;;;;;;;10.20;6.50;;;;;;;9.44;82.02;98071.09;108712;1270;23282;-72
2024/04/11 00:57:10;;;;;;;8.90;5.80;;;;;;;9.46;82.04;98073.02;108674;1274;22535;-72
2024/04/11 00:59:41;;;;;;;7.20;5.10;;;;;;;9.47;81.88;98073.63;108703;1253;22551;-72
2024/04/11 01:02:14;;;;;;;7.60;5.10;;;;;;;9.46;81.84;98075.19;108679;1272;24228;-72
2024/04/11 01:04:45;;;;;;;9.80;5.60;;;;;;;9.46;82.05;98073.80;108706;1271;23212;-72
2024/04/11 01:07:16;;;;;;;8.50;5.20;;;;;;;9.49;82.11;98071.01;108676;1275;22575;-72
2024/04/11 01:09:47;;;;;;;10.70;5.60;;;;;;;9.55;82.14;98068.61;108738;1270;22534;-72
2024/04/11 01:12:19;;;;;;;9.20;6.30;;;;;;;9.58;82.15;98069.85;108662;1275;22552;-72
2024/04/11 01:14:50;;;;;;;8.40;5.50;;;;;;;9.62;82.03;98067.66;108717;1275;22666;-72
2024/04/11 01:17:21;;;;;;;7.10;5.40;;;;;;;9.66;82.07;98068.30;108692;1275;23853;-72
2024/04/11 01:19:51;;;;;;;7.30;5.00;;;;;;;9.70;81.92;98069.38;108631;1275;22528;-72
2024/04/11 01:22:22;;;;;;;7.60;5.80;;;;;;;9.67;81.94;98065.41;108658;1275;22538;-72
2024/04/11 01:24:53;;;;;;;9.90;6.00;;;;;;;9.62;81.88;98072.84;108735;1275;23839;-72
2024/04/11 01:27:24;;;;;;;10.40;5.70;;;;;;;9.55;81.81;98071.59;108650;1270;22530;-72
2024/04/11 01:29:55;;;;;;;8.60;5.10;;;;;;;9.52;82.07;98071.43;108566;1275;186215;-72
2024/04/11 01:32:27;;;;;;;10.50;6.00;;;;;;;9.51;82.28;98073.52;108685;1272;23190;-72
2024/04/11 01:34:59;;;;;;;8.10;5.80;;;;;;;9.51;82.34;98073.41;108700;1270;24297;-72
2024/04/11 01:37:30;;;;;;;8.70;6.10;;;;;;;9.58;82.44;98071.11;108563;1268;26048;-72
2024/04/11 01:40:00;;;;;;;8.60;6.30;;;;;;;9.66;82.44;98070.10;108577;1274;22554;-72
2024/04/11 01:42:31;;;;;;;8.60;5.00;;;;;;;9.69;82.06;98070.89;108422;1276;22536;-72
2024/04/11 01:45:02;;;;;;;8.80;5.80;;;;;;;9.69;82.03;98073.16;108527;1276;22552;-72
2024/04/11 01:47:33;;;;;;;6.80;5.00;;;;;;;9.68;81.97;98076.72;108498;1271;22645;-71
2024/04/11 01:50:04;;;;;;;8.10;5.20;;;;;;;9.63;82.01;98073.23;108508;1276;25414;-71
2024/04/11 01:52:37;;;;;;;10.60;6.50;;;;;;;9.59;82.31;98069.80;108539;1276;22966;-72
2024/04/11 01:55:08;;;;;;;10.70;6.00;;;;;;;9.62;82.54;98067.91;108578;1273;22548;-72
2024/04/11 01:57:39;;;;;;;11.00;5.70;;;;;;;9.69;82.73;98064.71;108560;1276;22538;-72
2024/04/11 02:00:14;;;;;;;8.80;5.00;;;;;;;9.76;82.69;98060.92;108528;1273;22569;-72
2024/04/11 02:02:49;;;;;;;8.20;4.70;;;;;;;9.77;82.54;98059.09;108484;1275;22532;-72
2024/04/11 02:05:20;;;;;;;7.40;4.90;;;;;;;9.78;82.39;98059.37;108461;1270;22528;-72
2024/04/11 02:07:50;;;;;;;6.80;5.10;;;;;;;9.76;82.14;98056.31;108422;1270;22484;-71
2024/04/11 02:10:21;;;;;;;9.40;5.60;;;;;;;9.66;81.91;98056.70;108496;1276;24342;-72
2024/04/11 02:12:51;;;;;;;8.20;5.10;;;;;;;9.52;82.03;98055.23;108529;1270;22540;-72
2024/04/11 02:15:23;;;;;;;10.30;5.20;;;;;;;9.41;82.29;98057.86;108559;1270;23300;-72
2024/04/11 02:17:55;;;;;;;8.90;5.40;;;;;;;9.35;82.35;98063.52;108541;1276;24427;-72
2024/04/11 02:20:27;;;;;;;10.30;6.40;;;;;;;9.30;82.61;98065.22;108593;1268;22539;-72
2024/04/11 02:22:58;;;;;;;10.30;5.90;;;;;;;9.28;82.83;98064.09;108548;1271;22539;-72
2024/04/11 02:25:29;;;;;;;9.00;5.90;;;;;;;9.25;82.87;98059.61;108516;1253;22530;-72
2024/04/11 02:27:59;;;;;;;8.00;5.00;;;;;;;9.22;82.96;98061.04;108490;1276;22569;-71
2024/04/11 02:30:30;;;;;;;8.80;5.90;;;;;;;9.20;82.95;98058.30;108423;1276;24235;-72
2024/04/11 02:33:00;;;;;;;9.00;6.10;;;;;;;9.14;83.08;98056.59;108462;1276;22527;-72
2024/04/11 02:35:32;;;;;;;8.20;6.30;;;;;;;9.10;83.23;98056.34;108440;1276;25508;-72
2024/04/11 02:38:02;;;;;;;7.60;6.10;;;;;;;9.08;83.37;98050.69;108426;1276;25370;-72
2024/04/11 02:40:33;;;;;;;10.80;6.70;;;;;;;9.06;83.45;98051.71;108417;1273;22532;-72
2024/04/11 02:43:04;;;;;;;9.50;6.30;;;;;;;9.03;83.48;98050.39;108474;1271;22533;-72
2024/04/11 02:45:39;;;;;;;7.50;5.30;;;;;;;9.00;83.60;98047.95;108555;1274;22547;-72
2024/04/11 02:48:09;;;;;;;9.70;5.90;;;;;;;8.94;83.75;98049.98;108582;1275;23283;-72
2024/04/11 02:50:41;;;;;;;8.30;5.50;;;;;;;8.96;84.10;98048.36;108574;1275;25258;-72
2024/04/11 02:53:11;;;;;;;8.70;6.00;;;;;;;8.97;84.03;98054.73;108517;1275;22623;-72
2024/04/11 02:55:43;;;;;;;8.50;5.90;;;;;;;8.96;84.21;98055.82;108596;1270;22588;-71
2024/04/11 02:58:13;;;;;;;9.60;5.90;;;;;;;8.95;84.29;98056.92;108586;1275;22559;-72
2024/04/11 03:00:44;;;;;;;8.20;5.50;;;;;;;8.97;84.31;98057.70;108581;1275;24257;-72
2024/04/11 03:03:14;;;;;;;10.80;6.40;;;;;;;8.98;84.44;98062.89;108541;1269;22549;-71
2024/04/11 03:05:45;;;;;;;10.10;6.60;;;;;;;8.99;84.57;98065.19;108575;1270;22550;-72
2024/04/11 03:08:15;;;;;;;9.50;5.70;;;;;;;9.01;84.55;98069.79;108559;1268;22530;-72
2024/04/11 03:10:46;;;;;;;9.60;5.30;;;;;;;9.01;84.60;98064.39;108627;1275;22525;-72
2024/04/11 03:13:17;;;;;;;10.10;5.40;;;;;;;8.98;84.67;98063.95;108540;1268;22566;-72
2024/04/11 03:15:56;;;;;;;9.00;5.30;;;;;;;8.93;84.80;98057.41;108584;1275;22572;-72
2024/04/11 03:18:30;;;;;;;7.60;5.30;;;;;;;8.89;84.84;98062.25;108534;1275;23487;-72
2024/04/11 03:21:01;;;;;;;7.90;4.90;;;;;;;8.85;85.13;98065.06;108520;1270;22545;-71
2024/04/11 03:23:33;;;;;;;7.50;5.70;;;;;;;8.82;85.34;98069.85;108564;1275;24269;-72
2024/04/11 03:26:07;;;;;;;8.30;5.30;;;;;;;8.80;85.57;98067.60;108576;1275;22533;-72
2024/04/11 03:28:38;;;;;;;9.30;5.40;;;;;;;8.80;85.63;98067.98;108557;1275;22586;-72
2024/04/11 03:31:10;;;;;;;6.90;5.40;;;;;;;8.80;85.61;98062.04;108554;1275;22999;-72
2024/04/11 03:33:41;;;;;;;8.60;5.50;;;;;;;8.83;85.86;98062.30;108585;1269;22561;-72
2024/04/11 03:36:12;;;;;;;6.30;4.80;;;;;;;8.83;85.72;98058.51;108544;1267;22540;-72
2024/04/11 03:38:44;;;;;;;10.00;4.70;;;;;;;8.86;85.90;98057.33;108570;1255;22533;-72
2024/04/11 03:41:14;;;;;;;6.30;4.00;;;;;;;8.95;86.30;98052.96;108631;1267;22543;-72
2024/04/11 03:43:46;;;;;;;6.30;4.80;;;;;;;9.00;85.99;98054.83;108549;1268;22542;-72
2024/04/11 03:46:19;;;;;;;7.80;5.50;;;;;;;8.93;85.77;98053.59;108568;1275;22578;-72
2024/04/11 03:48:51;;;;;;;10.40;5.80;;;;;;;8.87;85.86;98055.48;108584;1267;22530;-72
2024/04/11 03:51:25;;;;;;;9.50;5.50;;;;;;;8.86;85.97;98056.55;108560;1274;22537;-71
2024/04/11 03:53:56;;;;;;;7.40;4.90;;;;;;;8.84;86.02;98057.89;108580;1275;22575;-72
2024/04/11 03:56:28;;;;;;;9.60;5.50;;;;;;;8.84;86.07;98064.55;108558;1275;22661;-71
2024/04/11 03:59:01;;;;;;;8.90;5.90;;;;;;;8.82;86.09;98061.14;108574;1268;22537;-72
2024/04/11 04:01:32;;;;;;;10.20;5.50;;;;;;;8.82;86.28;98061.88;108598;1271;22543;-74
2024/04/11 04:04:04;;;;;;;7.10;4.60;;;;;;;8.82;86.41;98060.81;108557;1275;22537;-73
2024/04/11 04:06:36;;;;;;;6.50;4.90;;;;;;;8.81;86.32;98060.31;108555;1275;25364;-72
2024/04/11 04:09:08;;;;;;;9.50;5.00;;;;;;;8.81;86.48;98063.76;108581;1274;24294;-72
2024/04/11 04:11:41;;;;;;;8.10;5.30;;;;;;;8.83;86.50;98064.27;108566;1275;22523;-71
2024/04/11 04:14:13;;;;;;;6.50;4.40;;;;;;;8.82;86.49;98066.80;108537;1275;22539;-71
2024/04/11 04:16:46;;;;;;;7.40;4.40;;;;;;;8.82;86.54;98068.17;108570;1275;22558;-72
2024/04/11 04:19:16;;;;;;;8.30;4.80;;;;;;;8.77;86.75;98071.08;108575;1264;25427;-72
2024/04/11 04:21:47;;;;;;;6.60;5.00;;;;;;;8.78;87.05;98069.20;108577;1270;22562;-71
2024/04/11 04:24:18;;;;;;;7.20;4.50;;;;;;;8.90;87.21;98064.55;108578;1275;22532;-72
2024/04/11 04:26:48;;;;;;;7.60;4.60;;;;;;;8.89;86.80;98066.91;108530;1272;22581;-72
2024/04/11 04:29:19;;;;;;;6.10;3.70;;;;;;;8.83;86.85;98069.57;108606;1274;22586;-72
2024/04/11 04:31:50;;;;;;;8.20;4.40;;;;;;;8.80;87.05;98070.70;108568;1274;24380;-72
2024/04/11 04:34:22;;;;;;;9.20;5.00;;;;;;;8.81;87.20;98067.99;108624;1267;25367;-72
2024/04/11 04:36:53;;;;;;;6.80;4.40;;;;;;;8.84;87.23;98072.92;108485;1268;22537;-71
2024/04/11 04:39:30;;;;;;;8.10;4.40;;;;;;;8.88;87.25;98074.23;108581;1270;22523;-72
2024/04/11 04:42:02;;;;;;;7.10;4.30;;;;;;;8.94;87.34;98078.48;108539;1269;22542;-72
2024/04/11 04:44:33;;;;;;;7.20;4.20;;;;;;;9.03;87.66;98079.84;108470;1268;25352;-72
2024/04/11 04:47:15;;;;;;;6.20;4.20;;;;;;;9.18;87.91;98078.73;108588;1272;24477;-71
2024/04/11 04:49:48;;;;;;;7.20;4.30;;;;;;;9.37;87.78;98085.47;108580;1268;22585;-72
2024/04/11 04:52:18;;;;;;;6.20;3.90;;;;;;;9.50;87.51;98081.87;108593;1267;22529;-72
2024/04/11 04:54:50;;;;;;;8.90;3.90;;;;;;;9.48;86.76;98079.92;108577;1271;22539;-71
2024/04/11 04:57:22;;;;;;;6.60;4.40;;;;;;;9.39;86.62;98079.95;108649;1267;22525;-72
2024/04/11 04:59:52;;;;;;;8.00;4.30;;;;;;;9.36;86.65;98082.55;108602;1275;22545;-71
2024/04/11 05:02:26;;;;;;;8.00;4.80;;;;;;;9.43;87.12;98078.30;108576;1271;24557;-71
2024/04/11 05:04:57;;;;;;;7.50;5.00;;;;;;;9.53;87.07;98082.89;108573;1268;25434;-71
2024/04/11 05:07:28;;;;;;;6.00;4.00;;;;;;;9.65;87.03;98083.06;108570;1268;22533;-71
2024/04/11 05:09:59;;;;;;;7.70;4.20;;;;;;;9.66;86.50;98089.70;108582;1268;22529;-72
2024/04/11 05:12:42;;;;;;;6.70;4.60;;;;;;;9.72;86.97;98089.92;108543;1267;22654;-71
2024/04/11 05:15:14;;;;;;;7.60;4.90;;;;;;;9.89;86.93;98095.77;108583;1268;22540;-71
2024/04/11 05:17:45;;;;;;;7.90;5.10;;;;;;;10.01;86.81;98099.70;108568;1267;22658;-72
2024/04/11 05:20:21;;;;;;;6.50;4.90;;;;;;;10.10;86.47;98101.52;108583;1275;25605;-72
2024/04/11 05:22:52;;;;;;;9.50;6.50;;;;;;;10.15;86.23;98093.69;108617;1271;22644;-72
2024/04/11 05:25:22;;;;;;;8.10;5.00;;;;;;;10.29;86.23;98088.69;108606;1268;22585;-71
2024/04/11 05:27:53;;;;;;;10.70;5.20;;;;;;;10.34;85.58;98091.59;108600;1267;22555;-71
2024/04/11 05:30:27;;;;;;;7.80;5.00;;;;;;;10.44;85.85;98097.27;108517;1267;25224;-71
2024/04/11 05:32:59;;;;;;;7.50;5.60;;;;;;;10.62;85.54;98097.98;108535;1267;22534;-72
2024/04/11 05:35:30;;;;;;;11.70;6.90;;;;;;;10.67;85.05;98104.31;108655;1271;25367;-72
2024/04/11 05:38:01;;;;;;;11.20;7.50;;;;;;;10.70;84.80;98099.91;108605;1275;22636;-71
2024/04/11 05:40:32;;;;;;;10.70;7.10;;;;;;;10.78;84.70;98099.33;108625;1275;22622;-72
2024/04/11 05:43:06;;;;;;;9.10;7.00;;;;;;;10.82;84.49;98103.14;108524;1275;24426;-72
2024/04/11 05:45:37;;;;;;;7.60;6.20;;;;;;;10.79;83.94;98099.40;108623;1271;26590;-71
2024/04/11 05:48:09;;;;;;;9.30;6.00;;;;;;;10.88;84.19;98099.53;108587;1264;22590;-72
2024/04/11 05:50:40;;;;;;;14.10;6.20;;;;;;;11.15;83.93;98096.99;108595;1268;22563;-72
2024/04/11 05:53:14;;;;;;;8.40;7.00;;;;;;;11.59;84.06;98101.48;108504;1274;23434;-71
2024/04/11 05:55:44;;;;;;;10.10;7.20;;;;;;;12.37;83.27;98104.02;108608;1271;24265;-72
2024/04/11 05:58:15;;;;;;;10.00;7.20;;;;;;;13.44;83.62;98104.31;108620;1274;22679;-72
2024/04/11 06:00:49;;;;;;;11.10;6.80;;;;;;;14.99;82.90;98106.92;108575;1252;22531;-72
2024/04/11 06:03:19;;;;;;;10.00;6.60;;;;;;;16.33;78.40;98107.48;108555;1268;22530;-72
2024/04/11 06:05:51;;;;;;;8.90;5.80;;;;;;;16.72;74.82;98112.02;108559;1260;22533;-71
2024/04/11 06:08:22;;;;;;;14.30;6.60;;;;;;;16.44;71.84;98106.86;108543;1268;22516;-72
2024/04/11 06:10:52;;;;;;;9.60;6.30;;;;;;;16.11;72.17;98108.44;108594;1275;26457;-72
2024/04/11 06:13:23;;;;;;;8.90;5.60;;;;;;;15.87;72.00;98105.83;108529;1274;22526;-72
2024/04/11 06:15:55;;;;;;;12.50;6.70;;;;;;;15.79;70.15;98105.28;108549;1275;23159;-72
2024/04/11 06:18:28;;;;;;;8.00;6.20;;;;;;;15.62;69.48;98105.84;108538;1275;22522;-72
2024/04/11 06:20:59;;;;;;;8.70;6.40;;;;;;;15.57;70.79;98106.43;108586;1272;22569;-72
2024/04/11 06:23:30;;;;;;;9.70;5.80;;;;;;;15.77;70.56;98105.73;108593;1268;23817;-71
2024/04/11 06:26:03;;;;;;;9.70;6.30;;;;;;;15.59;65.97;98100.97;108570;1275;22547;-72
2024/04/11 06:28:33;;;;;;;8.90;6.20;;;;;;;14.95;64.47;98108.23;108510;1268;22526;-72
2024/04/11 06:31:05;;;;;;;10.10;6.80;;;;;;;14.57;66.16;98115.95;108552;1275;22535;-72
2024/04/11 06:33:40;;;;;;;10.00;6.90;;;;;;;14.67;68.08;98116.97;108631;1268;22536;-71
2024/04/11 06:36:12;;;;;;;9.10;6.70;;;;;;;15.09;68.73;98118.27;108705;1267;22582;-71
2024/04/11 06:38:43;;;;;;;9.60;7.60;;;;;;;15.52;68.46;98121.63;108691;1268;23296;-71
2024/04/11 06:41:19;;;;;;;9.90;7.20;;;;;;;15.86;68.19;98124.63;108735;1275;25303;-71
2024/04/11 06:43:51;;;;;;;9.90;6.70;;;;;;;15.96;66.98;98127.30;108670;1271;22554;-71
2024/04/11 06:46:22;;;;;;;10.90;6.30;;;;;;;15.81;66.74;98129.88;108733;1268;22594;-71
2024/04/11 06:48:57;;;;;;;10.00;6.40;;;;;;;15.36;64.82;98131.03;108748;1267;22525;-71
2024/04/11 06:51:30;;;;;;;11.80;6.70;;;;;;;15.01;66.55;98135.95;108696;1268;22553;-71
2024/04/11 06:54:04;;;;;;;10.90;7.20;;;;;;;14.93;66.95;98136.50;108666;1268;22544;-71
2024/04/11 06:56:35;;;;;;;12.50;7.50;;;;;;;14.79;67.06;98136.67;108716;1275;25406;-71
2024/04/11 06:59:10;;;;;;;10.80;7.30;;;;;;;14.75;67.25;98137.09;108642;1268;22558;-71
2024/04/11 07:01:41;;;;;;;10.50;7.00;;;;;;;14.85;67.35;98140.56;108680;1275;22538;-71
2024/04/11 07:04:13;;;;;;;12.60;7.70;;;;;;;14.93;67.30;98141.52;108672;1275;22547;-71
2024/04/11 07:06:46;;;;;;;11.60;7.80;;;;;;;14.91;66.87;98142.16;108687;1271;22523;-71
2024/04/11 07:09:17;;;;;;;11.90;7.40;;;;;;;14.80;65.18;98141.59;108630;1275;22520;-71
2024/04/11 07:11:48;;;;;;;8.80;6.60;;;;;;;14.53;65.06;98135.23;108602;1275;22562;-71
2024/04/11 07:14:23;;;;;;;10.10;7.70;;;;;;;14.76;65.63;98132.17;108584;1275;22947;-71
2024/04/11 07:16:56;;;;;;;9.00;7.50;;;;;;;16.00;67.97;98133.48;108579;1268;22518;-71
2024/04/11 07:19:28;;;;;;;11.90;7.00;;;;;;;18.25;67.03;98129.86;108538;1267;22620;-72
2024/04/11 07:21:59;;;;;;;9.20;6.80;;;;;;;18.97;61.27;98130.26;108582;1256;25850;-71
2024/04/11 07:24:29;;;;;;;11.10;6.90;;;;;;;18.31;61.07;98132.39;108569;1268;22570;-71
2024/04/11 07:27:00;;;;;;;9.90;7.00;;;;;;;17.83;61.18;98138.95;108554;1268;23301;-71
2024/04/11 07:29:32;;;;;;;8.90;6.70;;;;;;;17.78;61.46;98134.83;108571;1270;22738;-72
2024/04/11 07:32:03;;;;;;;10.20;6.90;;;;;;;17.71;61.25;98138.70;108548;1275;22592;-71
2024/04/11 07:34:33;;;;;;;9.10;6.80;;;;;;;17.33;60.91;98141.96;108569;1271;22536;-71
2024/04/11 07:37:06;;;;;;;9.80;7.10;;;;;;;16.68;60.54;98144.02;108575;1271;22526;-71
2024/04/11 07:39:37;;;;;;;9.90;7.80;;;;;;;16.15;61.36;98145.12;108563;1267;22522;-71
2024/04/11 07:42:47;;;;;;;10.60;8.20;;;;;;;15.58;61.37;98147.70;108558;1275;22529;-71
2024/04/11 07:45:17;;;;;;;12.60;8.30;;;;;;;14.90;61.96;98151.13;108531;1270;22521;-72
2024/04/11 07:47:49;;;;;;;10.40;8.30;;;;;;;14.42;62.70;98159.73;108589;1267;22521;-72
2024/04/11 07:50:26;;;;;;;10.30;7.60;;;;;;;14.08;63.49;98163.59;108563;1268;22587;-72
2024/04/11 07:52:57;;;;;;;10.00;6.70;;;;;;;13.78;64.15;98171.86;108552;1267;22540;-72
2024/04/11 07:55:28;;;;;;;14.70;8.20;;;;;;;13.54;64.73;98176.55;108553;1275;25688;-72
2024/04/11 07:57:58;;;;;;;10.20;8.20;;;;;;;13.31;65.18;98179.81;108586;1268;22582;-72
2024/04/11 08:00:29;;;;;;;12.90;8.40;;;;;;;13.09;65.48;98184.53;108562;1275;22531;-72
2024/04/11 08:03:02;;;;;;;12.20;8.20;;;;;;;12.94;65.99;98185.13;108513;1268;22528;-72
2024/04/11 08:05:34;;;;;;;11.90;8.90;;;;;;;12.79;66.23;98184.63;108343;1268;22526;-72
2024/04/11 08:08:05;;;;;;;12.80;8.80;;;;;;;12.63;66.43;98180.96;108586;1274;23699;-72
2024/04/11 08:10:35;;;;;;;13.10;9.30;;;;;;;12.55;67.29;98185.74;108550;1271;23023;-72
2024/04/11 08:13:08;;;;;;;11.90;8.50;;;;;;;12.53;67.70;98180.35;108512;1268;22524;-72
2024/04/11 08:15:41;;;;;;;12.80;8.00;;;;;;;12.53;68.11;98182.73;108513;1273;22530;-72
2024/04/11 08:18:12;;;;;;;11.00;8.10;;;;;;;12.51;68.34;98182.71;108589;1271;25969;-72
2024/04/11 08:20:44;;;;;;;15.20;7.60;;;;;;;12.53;68.59;98189.64;108578;1273;22713;-72
2024/04/11 08:23:20;;;;;;;11.20;8.60;;;;;;;12.54;68.77;98189.58;108646;1272;22524;-72
2024/04/11 08:25:55;;;;;;;11.00;9.10;;;;;;;12.54;68.75;98192.12;108562;1267;22541;-72
2024/04/11 08:28:28;;;;;;;13.40;9.70;;;;;;;12.51;68.84;98191.80;108601;1267;22687;-73
2024/04/11 08:30:59;;;;;;;12.50;9.00;;;;;;;12.57;69.22;98192.84;108574;1268;23196;-72
2024/04/11 08:33:30;;;;;;;12.00;9.10;;;;;;;12.59;69.07;98195.95;108636;1273;22542;-72
2024/04/11 08:36:01;;;;;;;13.70;9.80;;;;;;;12.51;69.08;98187.77;108561;1267;23098;-72
2024/04/11 08:38:33;;;;;;;13.30;9.50;;;;;;;12.48;69.35;98190.35;108642;1271;22635;-72
2024/04/11 08:41:11;;;;;;;14.60;9.80;;;;;;;12.41;69.58;98190.61;108478;1267;22537;-72
2024/04/11 08:43:45;;;;;;;11.20;8.20;;;;;;;12.52;70.11;98192.68;108618;1268;25229;-72
2024/04/11 08:46:16;;;;;;;11.20;8.80;;;;;;;12.70;70.19;98193.81;108651;1261;22519;-72
2024/04/11 08:48:47;;;;;;;11.20;8.20;;;;;;;12.96;70.28;98194.88;108576;1267;22515;-72
2024/04/11 08:51:20;;;;;;;14.30;8.80;;;;;;;13.21;69.91;98194.66;108600;1267;22572;-72
2024/04/11 08:53:51;;;;;;;13.90;9.00;;;;;;;13.45;70.00;98192.31;108620;1273;22522;-72
2024/04/11 08:56:22;;;;;;;11.20;7.80;;;;;;;13.66;68.68;98190.84;108647;1268;22521;-72
2024/04/11 08:58:53;;;;;;;16.40;9.80;;;;;;;13.69;68.05;98195.06;108659;1268;22532;-72
2024/04/11 09:01:27;;;;;;;12.10;10.00;;;;;;;13.69;67.87;98190.33;108627;1271;22539;-72
2024/04/11 09:03:57;;;;;;;12.50;10.10;;;;;;;13.58;66.36;98191.60;108458;1268;24225;-72
2024/04/11 09:06:30;;;;;;;12.90;10.10;;;;;;;13.52;67.53;98195.45;108680;1271;22615;-72
2024/04/11 09:09:07;;;;;;;14.10;9.90;;;;;;;13.63;67.42;98197.95;108730;1273;22551;-72
2024/04/11 09:11:42;;;;;;;12.90;10.30;;;;;;;13.57;67.15;98201.66;108698;1268;22927;-72
2024/04/11 09:14:14;;;;;;;16.00;9.90;;;;;;;13.44;67.44;98198.39;108830;1274;25404;-73
2024/04/11 09:16:45;;;;;;;13.80;10.30;;;;;;;13.38;67.95;98202.52;108779;1268;25379;-72
2024/04/11 09:19:22;;;;;;;12.40;9.30;;;;;;;13.41;67.70;98202.64;108757;1274;22622;-72
2024/04/11 09:21:53;;;;;;;11.40;9.00;;;;;;;13.38;67.98;98206.34;108755;1274;22659;-72
2024/04/11 09:24:24;;;;;;;14.00;9.50;;;;;;;13.38;67.94;98204.52;108702;1274;22526;-72
2024/04/11 09:26:56;;;;;;;9.50;8.50;;;;;;;13.30;67.72;98201.81;108770;1271;22562;-72
2024/04/11 09:29:27;;;;;;;12.30;9.10;;;;;;;13.08;67.13;98205.29;108749;1267;22569;-72
2024/04/11 09:31:59;;;;;;;12.70;10.40;;;;;;;12.96;67.96;98206.91;108618;1258;22562;-72
2024/04/11 09:34:31;;;;;;;12.20;9.90;;;;;;;13.03;68.55;98201.64;108801;1274;22526;-72
2024/04/11 09:37:13;;;;;;;11.80;9.50;;;;;;;13.22;67.69;98199.23;108700;1271;23026;-72
2024/04/11 09:39:49;;;;;;;12.40;9.80;;;;;;;13.18;67.80;98199.16;108763;1268;24266;-71
2024/04/11 09:42:20;;;;;;;15.10;10.20;;;;;;;13.19;67.65;98197.31;108780;1271;22517;-72
2024/04/11 09:44:52;;;;;;;14.20;10.40;;;;;;;13.24;68.49;98196.81;108759;1268;27424;-72
2024/04/11 09:47:26;;;;;;;14.80;10.60;;;;;;;13.33;67.97;98193.74;108790;1274;24221;-71
2024/04/11 09:50:00;;;;;;;11.50;8.00;;;;;;;13.58;68.29;98195.64;108782;1274;22571;-72
2024/04/11 09:52:34;;;;;;;11.40;8.30;;;;;;;13.81;67.34;98192.30;108659;1272;22640;-72
2024/04/11 09:55:07;;;;;;;13.20;10.20;;;;;;;13.68;66.23;98197.19;108755;1268;23082;-72
2024/04/11 09:57:46;;;;;;;14.00;10.30;;;;;;;13.46;65.96;98204.20;108671;1267;22529;-72
2024/04/11 10:00:48;;;;;;;10.40;8.60;;;;;;;13.26;66.91;98202.54;108597;1271;22528;-72
2024/04/11 10:03:18;;;;;;;12.30;9.60;;;;;;;13.22;66.90;98201.33;108609;1274;24216;-71
2024/04/11 10:05:50;;;;;;;12.10;10.70;;;;;;;13.20;66.89;98201.31;108675;1274;22540;-72
2024/04/11 10:08:27;;;;;;;11.50;9.20;;;;;;;13.28;67.48;98202.70;108767;1271;22567;-72
2024/04/11 10:11:07;;;;;;;12.70;9.20;;;;;;;13.53;67.57;98197.54;108712;1252;22566;-72
2024/04/11 10:13:40;;;;;;;11.00;9.00;;;;;;;13.60;67.69;98200.34;108497;1273;22528;-72
2024/04/11 10:16:22;;;;;;;12.10;9.50;;;;;;;13.65;66.05;98203.36;108557;1262;22728;-72
2024/04/11 10:19:04;;;;;;;12.80;9.20;;;;;;;13.67;67.60;98203.15;108591;1273;22579;-72
2024/04/11 10:21:38;;;;;;;11.40;9.60;;;;;;;13.92;66.91;98204.81;108586;1274;22536;-72
2024/04/11 10:24:23;;;;;;;12.90;9.50;;;;;;;13.96;65.03;98204.69;108583;1268;32204;-72
2024/04/11 10:26:55;;;;;;;12.20;7.90;;;;;;;13.93;64.85;98207.44;108651;1268;22669;-72
2024/04/11 10:29:26;;;;;;;14.60;9.00;;;;;;;14.21;65.74;98201.93;108570;1255;22538;-72
2024/04/11 10:31:58;;;;;;;12.50;8.60;;;;;;;14.69;66.25;98203.35;108477;1267;22629;-72
2024/04/11 10:34:35;;;;;;;11.40;8.60;;;;;;;15.10;64.96;98195.57;108553;1267;22655;-72
2024/04/11 10:37:07;;;;;;;10.00;7.50;;;;;;;15.44;64.75;98187.88;108458;1271;22526;-72
2024/04/11 10:39:47;;;;;;;11.60;8.30;;;;;;;15.74;63.65;98187.89;108576;1268;22642;-73
2024/04/11 10:42:17;;;;;;;10.50;7.80;;;;;;;15.65;61.51;98183.67;108638;1273;22867;-72
2024/04/11 10:44:49;;;;;;;11.30;7.70;;;;;;;15.38;60.88;98180.79;108586;1273;22561;-73
2024/04/11 10:47:21;;;;;;;12.70;8.70;;;;;;;15.03;61.13;98180.98;108584;1274;24279;-72
2024/04/11 10:49:55;;;;;;;11.30;8.10;;;;;;;14.86;62.28;98180.98;108760;1274;24273;-73
2024/04/11 10:52:27;;;;;;;11.00;7.90;;;;;;;15.09;62.43;98176.23;108644;1273;22540;-73
2024/04/11 10:55:13;;;;;;;11.20;7.80;;;;;;;15.14;60.51;98182.30;108618;1267;24290;-73
2024/04/11 10:57:45;;;;;;;8.10;6.10;;;;;;;14.92;59.35;98177.95;108590;1267;22533;-72
2024/04/11 11:00:22;;;;;;;12.10;6.50;;;;;;;14.91;60.88;98182.80;108593;1271;25267;-73
2024/04/11 11:03:11;;;;;;;8.40;6.10;;;;;;;15.18;61.72;98184.38;108574;1271;23126;-72
2024/04/11 11:05:47;;;;;;;7.20;4.80;;;;;;;15.25;60.41;98184.34;108556;1273;22544;-73
2024/04/11 11:08:18;;;;;;;10.00;6.70;;;;;;;15.17;59.62;98182.41;108435;1266;24271;-72
2024/04/11 11:10:49;;;;;;;7.80;6.50;;;;;;;15.12;59.65;98175.54;108553;1268;26491;-72
2024/04/11 11:13:21;;;;;;;10.80;7.00;;;;;;;15.19;60.87;98174.55;108648;1265;22519;-72
2024/04/11 11:15:55;;;;;;;8.60;6.40;;;;;;;15.18;59.09;98174.39;108637;1271;22519;-73
2024/04/11 11:18:28;;;;;;;9.80;6.30;;;;;;;14.79;58.96;98177.14;108688;1273;25322;-72
2024/04/11 11:21:01;;;;;;;8.60;6.50;;;;;;;14.74;58.94;98172.97;108701;1271;22540;-73
2024/04/11 11:23:35;;;;;;;8.40;5.90;;;;;;;14.76;60.01;98172.45;108685;1268;22564;-73
2024/04/11 11:26:11;;;;;;;9.20;5.40;;;;;;;15.07;60.68;98169.66;108684;1272;22540;-72
2024/04/11 11:28:42;;;;;;;9.30;6.40;;;;;;;15.08;57.64;98172.17;108603;1271;22988;-73
2024/04/11 11:31:20;;;;;;;7.50;5.50;;;;;;;15.00;59.64;98169.94;108587;1274;22570;-72
2024/04/11 11:33:54;;;;;;;12.90;7.10;;;;;;;15.09;58.65;98167.58;108600;1274;25304;-72
2024/04/11 11:36:25;;;;;;;9.40;5.90;;;;;;;15.04;59.26;98162.81;108731;1267;22536;-72
2024/04/11 11:38:55;;;;;;;7.70;5.50;;;;;;;15.05;58.95;98162.66;108659;1273;22521;-72
2024/04/11 11:41:26;;;;;;;9.50;6.60;;;;;;;14.97;58.68;98159.20;108583;1273;22526;-73
2024/04/11 11:44:00;;;;;;;8.00;5.90;;;;;;;15.02;59.34;98159.94;108549;1271;22519;-72
2024/04/11 11:46:37;;;;;;;8.30;5.70;;;;;;;15.06;58.63;98160.35;108638;1274;22586;-73
2024/04/11 11:49:12;;;;;;;10.10;6.90;;;;;;;15.05;58.24;98155.55;108583;1274;22535;-72